Terminal Aerodrome Forecast
Issued by NWS

Home | Current Version | Previous Version | Text Only | Print | Product List | Glossary On
Versions: 1 2 3 4 5 6 7 8 9 10 11 12 13 14 15 16 17 18 19 20 21 22 23 24
000
FTUS43 KLOT 250538
TAFORD
TAF
KORD 250538Z 2506/2612 02013G21KT P6SM BKN100
     FM250630 02016G26KT P6SM BKN027 BKN100
     FM250900 02014G23KT P6SM FEW030 BKN100
     FM251300 03013G21KT P6SM FEW040 SCT250
     FM252200 03012KT P6SM SKC
     FM260400 34005KT P6SM SKC=

USA.gov is the U.S. government's official web portal to all federal, state and local government web resources and services.